Time;durP1;ratioP1;P1;durP2;ratioP2;P2;SDS_P1;SDS_P2;PMS_P1;PMS_P2;Temp;Humidity;BMP_temperature;BMP_pressure;BME280_temperature;BME280_humidity;BME280_pressure;Samples;Min_cycle;Max_cycle;Signal;HPM_P1;HPM_P2
2023/12/12 00:00:45;;;;;;;14.83;8.37;;;6.90;99.90;;;;;;5069899;28;20189;-68
2023/12/12 00:03:12;;;;;;;19.67;9.83;;;6.80;99.90;;;;;;5070007;28;20286;-68
2023/12/12 00:05:39;;;;;;;20.17;10.50;;;6.80;99.90;;;;;;5065524;28;20244;-69
2023/12/12 00:08:06;;;;;;;19.93;9.97;;;6.80;99.90;;;;;;5061008;28;20216;-69
2023/12/12 00:10:33;;;;;;;17.50;9.53;;;6.80;99.90;;;;;;5069742;28;20611;-68
2023/12/12 00:13:00;;;;;;;17.50;9.37;;;6.80;99.90;;;;;;5070133;28;20197;-68
2023/12/12 00:15:29;;;;;;;19.53;10.03;;;6.80;99.90;;;;;;5050568;28;20216;-69
2023/12/12 00:17:56;;;;;;;15.17;7.87;;;6.80;99.90;;;;;;5070070;28;20201;-69
2023/12/12 00:20:23;;;;;;;18.87;9.93;;;6.90;99.90;;;;;;5069932;28;20206;-68
2023/12/12 00:22:50;;;;;;;24.50;11.70;;;6.90;99.90;;;;;;5069362;28;20225;-69
2023/12/12 00:25:17;;;;;;;24.33;11.33;;;6.90;99.90;;;;;;5069779;28;20200;-68
2023/12/12 00:27:44;;;;;;;23.00;11.67;;;6.90;99.90;;;;;;5069342;28;20291;-68
2023/12/12 00:30:12;;;;;;;18.73;10.13;;;6.90;99.90;;;;;;5070155;28;20225;-69
2023/12/12 00:32:40;;;;;;;20.90;10.77;;;6.90;99.90;;;;;;5068887;28;20253;-69
2023/12/12 00:35:08;;;;;;;19.70;9.40;;;6.90;99.90;;;;;;5047332;28;20193;-69
2023/12/12 00:37:35;;;;;;;18.60;9.47;;;6.90;99.90;;;;;;5061313;28;20197;-69
2023/12/12 00:40:03;;;;;;;22.90;11.03;;;6.90;99.90;;;;;;5052162;28;20342;-69
2023/12/12 00:42:30;;;;;;;19.73;10.70;;;6.90;99.90;;;;;;5058812;28;20203;-68
2023/12/12 00:44:57;;;;;;;19.60;9.77;;;6.80;99.90;;;;;;5053714;28;20247;-68
2023/12/12 00:47:24;;;;;;;18.60;9.10;;;6.90;99.90;;;;;;5072158;28;20656;-68
2023/12/12 00:49:52;;;;;;;22.73;10.53;;;6.90;99.90;;;;;;5073361;28;20290;-68
2023/12/12 00:52:19;;;;;;;23.87;11.10;;;6.90;99.90;;;;;;5072226;28;20193;-68
2023/12/12 00:54:46;;;;;;;23.20;10.57;;;6.90;99.90;;;;;;5073255;28;20221;-69
2023/12/12 00:57:13;;;;;;;17.57;9.73;;;7.00;99.90;;;;;;5072213;28;20251;-68
2023/12/12 00:59:40;;;;;;;15.43;8.60;;;7.00;99.90;;;;;;5073567;28;20190;-68
2023/12/12 01:02:07;;;;;;;21.03;10.10;;;7.00;99.90;;;;;;5054895;28;20585;-69
2023/12/12 01:04:34;;;;;;;23.57;11.43;;;7.00;99.90;;;;;;5069699;28;20282;-69
2023/12/12 01:07:03;;;;;;;17.13;9.17;;;7.00;99.90;;;;;;5058927;28;20284;-69
2023/12/12 01:09:30;;;;;;;20.03;10.00;;;7.00;99.90;;;;;;5072878;28;20568;-69
2023/12/12 01:11:57;;;;;;;17.17;9.30;;;7.00;99.90;;;;;;5072411;28;20575;-69
2023/12/12 01:14:24;;;;;;;18.90;9.77;;;7.00;99.90;;;;;;5072947;28;20338;-69
2023/12/12 01:16:51;;;;;;;15.10;8.27;;;7.00;99.90;;;;;;5072439;28;20201;-68
2023/12/12 01:19:18;;;;;;;15.20;8.20;;;7.00;99.90;;;;;;5073048;28;20310;-69
2023/12/12 01:21:45;;;;;;;14.70;7.70;;;7.00;99.90;;;;;;5072211;28;20197;-69
2023/12/12 01:24:14;;;;;;;18.57;9.17;;;7.00;99.90;;;;;;5054319;28;20201;-68
2023/12/12 01:26:41;;;;;;;17.20;8.33;;;7.00;99.90;;;;;;5054436;28;20291;-69
2023/12/12 01:29:11;;;;;;;17.60;8.73;;;7.00;99.90;;;;;;5054448;28;20241;-68
2023/12/12 01:31:38;;;;;;;15.93;8.57;;;7.00;99.90;;;;;;5071891;28;20221;-69
2023/12/12 01:34:05;;;;;;;13.33;7.50;;;7.00;99.90;;;;;;5072896;28;20272;-69
2023/12/12 01:36:32;;;;;;;17.10;7.97;;;7.00;99.90;;;;;;5071766;28;20246;-69
2023/12/12 01:38:59;;;;;;;13.50;7.17;;;7.00;99.90;;;;;;5072097;28;20250;-69
2023/12/12 01:41:27;;;;;;;12.70;6.87;;;7.00;99.90;;;;;;5072187;28;20197;-69
2023/12/12 01:43:54;;;;;;;16.17;8.20;;;7.00;99.90;;;;;;5063867;28;20224;-68
2023/12/12 01:46:22;;;;;;;13.17;6.67;;;7.00;99.90;;;;;;5054215;28;20274;-68
2023/12/12 01:48:49;;;;;;;13.60;7.40;;;7.00;99.90;;;;;;5064406;28;20237;-69
2023/12/12 01:51:17;;;;;;;16.50;8.33;;;7.00;99.90;;;;;;5053845;28;20204;-68
2023/12/12 01:53:46;;;;;;;13.77;7.73;;;7.00;99.90;;;;;;5071869;28;20602;-68
2023/12/12 01:56:15;;;;;;;15.83;8.43;;;6.90;99.90;;;;;;5071808;28;20569;-67
2023/12/12 01:58:47;;;;;;;13.80;6.90;;;6.90;99.90;;;;;;5065843;28;20207;-68
2023/12/12 02:01:15;;;;;;;14.47;7.60;;;6.90;99.90;;;;;;5072115;28;20265;-67
2023/12/12 02:03:42;;;;;;;13.47;7.30;;;6.90;99.90;;;;;;5071405;28;20309;-68
2023/12/12 02:06:12;;;;;;;17.13;7.80;;;6.80;99.90;;;;;;5046342;28;20210;-68
2023/12/12 02:08:39;;;;;;;12.60;6.60;;;6.80;99.90;;;;;;5066986;28;20213;-68
2023/12/12 02:11:06;;;;;;;12.93;6.93;;;6.90;99.90;;;;;;5071945;28;20197;-69
2023/12/12 02:13:33;;;;;;;17.00;9.00;;;6.80;99.90;;;;;;5071953;28;20221;-69
2023/12/12 02:16:02;;;;;;;14.87;7.50;;;6.80;99.90;;;;;;5071779;28;20227;-69
2023/12/12 02:18:29;;;;;;;14.93;7.77;;;6.90;99.90;;;;;;5071728;28;20189;-68
2023/12/12 02:20:59;;;;;;;20.17;9.47;;;6.90;99.90;;;;;;5071562;28;20197;-68
2023/12/12 02:23:28;;;;;;;19.13;8.30;;;6.90;99.90;;;;;;5071235;28;20216;-69
2023/12/12 02:25:55;;;;;;;19.13;8.70;;;6.90;99.90;;;;;;5071670;28;20292;-69
2023/12/12 02:28:23;;;;;;;16.87;8.53;;;6.90;99.90;;;;;;5071469;28;20244;-68
2023/12/12 02:30:51;;;;;;;14.77;8.23;;;7.00;99.90;;;;;;5067759;28;20198;-69
2023/12/12 02:33:18;;;;;;;14.03;7.97;;;7.00;99.90;;;;;;5071805;28;20220;-69
2023/12/12 02:35:45;;;;;;;15.17;7.93;;;7.00;99.90;;;;;;5070187;28;20197;-68
2023/12/12 02:38:13;;;;;;;14.60;7.97;;;7.00;99.90;;;;;;5071175;28;20236;-69
2023/12/12 02:40:41;;;;;;;13.03;7.43;;;7.00;99.90;;;;;;5061953;28;20258;-68
2023/12/12 02:43:09;;;;;;;12.60;6.83;;;7.00;99.90;;;;;;5071348;28;20197;-69
2023/12/12 02:45:36;;;;;;;12.30;6.93;;;7.00;99.90;;;;;;5070258;28;20193;-68
2023/12/12 02:48:03;;;;;;;12.10;6.70;;;7.00;99.90;;;;;;5071343;28;20241;-68
2023/12/12 02:50:30;;;;;;;11.27;6.27;;;7.00;99.90;;;;;;5070703;28;20259;-69
2023/12/12 02:52:57;;;;;;;11.33;6.23;;;7.00;99.90;;;;;;5071378;28;20280;-69
2023/12/12 02:55:24;;;;;;;14.50;7.47;;;7.00;99.90;;;;;;5071040;28;20189;-69
2023/12/12 02:57:52;;;;;;;12.37;6.63;;;7.00;99.90;;;;;;5071549;28;20196;-69
2023/12/12 03:00:19;;;;;;;10.57;5.73;;;6.90;99.90;;;;;;5071372;28;20276;-69
2023/12/12 03:02:47;;;;;;;8.37;5.13;;;6.90;99.90;;;;;;5070517;28;20306;-69
2023/12/12 03:05:14;;;;;;;5.87;4.63;;;6.90;99.90;;;;;;5065832;28;20255;-69
2023/12/12 03:07:41;;;;;;;6.87;4.37;;;6.90;99.90;;;;;;5069997;28;20665;-68
2023/12/12 03:10:08;;;;;;;8.07;4.60;;;6.90;99.90;;;;;;5070232;28;20291;-68
2023/12/12 03:12:35;;;;;;;8.73;4.63;;;6.90;99.90;;;;;;5070248;28;20270;-68
2023/12/12 03:15:04;;;;;;;11.80;6.00;;;6.90;99.90;;;;;;5052914;28;20201;-68
2023/12/12 03:17:31;;;;;;;9.87;5.43;;;6.90;99.90;;;;;;5070132;28;20196;-69
2023/12/12 03:19:58;;;;;;;8.07;4.97;;;6.90;99.90;;;;;;5071102;28;20302;-68
2023/12/12 03:22:25;;;;;;;8.60;5.13;;;6.90;99.90;;;;;;5069671;28;20193;-68
2023/12/12 03:24:52;;;;;;;6.03;4.30;;;6.90;99.90;;;;;;5070802;28;20227;-68
2023/12/12 03:27:19;;;;;;;7.13;4.80;;;7.00;99.90;;;;;;5069563;28;20283;-69
2023/12/12 03:29:46;;;;;;;5.63;3.80;;;7.00;99.90;;;;;;5070843;28;20220;-67
2023/12/12 03:32:15;;;;;;;6.07;4.00;;;7.00;99.90;;;;;;5068281;28;20712;-68
2023/12/12 03:34:42;;;;;;;5.73;3.87;;;7.00;99.90;;;;;;5045576;28;20330;-68
2023/12/12 03:37:09;;;;;;;6.07;3.73;;;7.00;99.90;;;;;;5068880;28;20238;-68
2023/12/12 03:39:37;;;;;;;5.30;3.50;;;7.00;99.90;;;;;;5070949;28;20301;-68
2023/12/12 03:42:05;;;;;;;5.80;3.70;;;7.00;99.90;;;;;;5069574;28;20243;-68
2023/12/12 03:44:32;;;;;;;6.53;4.20;;;7.00;99.90;;;;;;5052221;28;20228;-68
2023/12/12 03:46:59;;;;;;;4.07;3.40;;;7.00;99.90;;;;;;5051199;28;20205;-68
2023/12/12 03:49:27;;;;;;;4.10;3.43;;;7.10;99.90;;;;;;5048720;28;20614;-68
2023/12/12 03:51:54;;;;;;;4.63;3.30;;;7.10;99.90;;;;;;5069469;28;20189;-68
2023/12/12 03:54:21;;;;;;;3.77;2.93;;;7.10;99.90;;;;;;5051679;28;20232;-68
2023/12/12 03:56:48;;;;;;;4.03;2.70;;;7.10;99.90;;;;;;5050822;28;20221;-68
2023/12/12 03:59:15;;;;;;;4.00;3.23;;;7.10;99.90;;;;;;5070217;28;20193;-68
2023/12/12 04:01:47;;;;;;;2.87;2.13;;;7.10;99.90;;;;;;5068486;28;20205;-69
2023/12/12 04:04:14;;;;;;;4.70;3.53;;;7.10;99.90;;;;;;5046363;28;20228;-68
2023/12/12 04:06:45;;;;;;;4.67;3.33;;;7.10;99.90;;;;;;5050552;28;20224;-68
2023/12/12 04:09:13;;;;;;;3.57;2.60;;;7.10;99.90;;;;;;5069734;28;20236;-68
2023/12/12 04:11:40;;;;;;;3.27;2.33;;;7.10;99.90;;;;;;5069772;28;20251;-68
2023/12/12 04:14:07;;;;;;;3.70;2.70;;;7.10;99.90;;;;;;5051788;28;20304;-68
2023/12/12 04:16:34;;;;;;;3.70;2.70;;;7.10;99.90;;;;;;5069771;28;20197;-69
2023/12/12 04:19:01;;;;;;;3.10;2.57;;;7.10;99.90;;;;;;5066654;28;20315;-68
2023/12/12 04:21:28;;;;;;;3.13;2.50;;;7.10;99.90;;;;;;5055342;28;20299;-68
2023/12/12 04:23:55;;;;;;;2.90;2.57;;;7.20;99.90;;;;;;5073200;28;20247;-68
2023/12/12 04:26:22;;;;;;;2.93;2.33;;;7.20;99.90;;;;;;5073843;28;20201;-69
2023/12/12 04:28:49;;;;;;;2.57;2.23;;;7.20;99.90;;;;;;5074013;28;20204;-69
2023/12/12 04:31:16;;;;;;;2.37;2.10;;;7.20;99.90;;;;;;5055239;28;20233;-67
2023/12/12 04:33:44;;;;;;;2.53;2.10;;;7.20;99.90;;;;;;5073363;28;20193;-68
2023/12/12 04:36:14;;;;;;;2.57;2.37;;;7.20;99.90;;;;;;5072867;28;20200;-69
2023/12/12 04:38:41;;;;;;;3.67;2.33;;;7.20;99.90;;;;;;5054576;28;20345;-69
2023/12/12 04:41:09;;;;;;;3.23;2.50;;;7.20;99.90;;;;;;5073081;28;20197;-69
2023/12/12 04:43:37;;;;;;;2.83;2.53;;;7.20;99.90;;;;;;5073346;28;20283;-68
2023/12/12 04:46:04;;;;;;;3.27;2.53;;;7.20;99.90;;;;;;5073320;28;20193;-68
2023/12/12 04:48:31;;;;;;;3.83;2.80;;;7.20;99.90;;;;;;5073179;28;20201;-69
2023/12/12 04:51:00;;;;;;;3.33;2.70;;;7.10;99.90;;;;;;5072889;28;20338;-69
2023/12/12 04:53:27;;;;;;;2.73;2.47;;;7.10;99.90;;;;;;5072941;28;20672;-68
2023/12/12 04:55:54;;;;;;;4.57;3.00;;;7.10;99.90;;;;;;5072726;28;20229;-69
2023/12/12 04:58:22;;;;;;;4.17;2.90;;;7.10;99.90;;;;;;5072992;28;20202;-69
2023/12/12 05:00:49;;;;;;;3.40;3.10;;;7.20;99.90;;;;;;5072996;28;20597;-69
2023/12/12 05:03:16;;;;;;;3.77;3.00;;;7.20;99.90;;;;;;5072535;28;20241;-69
2023/12/12 05:05:44;;;;;;;3.60;2.90;;;7.30;99.90;;;;;;5044039;28;20202;-69
2023/12/12 05:08:11;;;;;;;4.77;3.07;;;7.30;99.90;;;;;;5071114;28;20208;-68
2023/12/12 05:10:38;;;;;;;4.03;3.17;;;7.30;99.90;;;;;;5072779;28;20220;-69
2023/12/12 05:13:06;;;;;;;4.50;3.47;;;7.30;99.90;;;;;;5073512;28;20256;-69
2023/12/12 05:15:34;;;;;;;4.07;3.30;;;7.30;99.90;;;;;;5072786;28;20193;-68
2023/12/12 05:18:02;;;;;;;4.70;3.50;;;7.30;99.90;;;;;;5073227;28;20657;-69
2023/12/12 05:20:29;;;;;;;4.70;3.10;;;7.30;99.90;;;;;;5072800;28;20197;-69
2023/12/12 05:22:56;;;;;;;6.60;3.40;;;7.30;99.90;;;;;;5052500;28;20271;-69
2023/12/12 05:25:24;;;;;;;3.70;2.73;;;7.30;99.90;;;;;;5053179;28;20205;-69
2023/12/12 05:27:51;;;;;;;3.13;2.47;;;7.40;99.90;;;;;;5072812;28;20714;-69
2023/12/12 05:30:18;;;;;;;4.73;2.40;;;7.30;99.90;;;;;;5072718;28;20244;-68
2023/12/12 05:32:46;;;;;;;3.33;2.37;;;7.30;99.90;;;;;;5071389;28;20603;-68
2023/12/12 05:35:13;;;;;;;2.60;2.37;;;7.30;99.90;;;;;;5072156;28;20264;-68
2023/12/12 05:37:43;;;;;;;2.50;2.23;;;7.40;99.90;;;;;;5071588;28;20637;-69
2023/12/12 05:40:14;;;;;;;2.20;2.00;;;7.30;99.90;;;;;;5072914;28;20186;-68
2023/12/12 05:42:41;;;;;;;2.10;1.90;;;7.30;99.90;;;;;;5071846;28;20197;-69
2023/12/12 05:45:09;;;;;;;2.90;2.40;;;7.30;99.90;;;;;;5054703;28;20205;-68
2023/12/12 05:47:36;;;;;;;2.47;2.10;;;7.30;99.90;;;;;;5071982;28;20227;-69
2023/12/12 05:50:05;;;;;;;2.80;2.00;;;7.30;99.90;;;;;;5069574;28;20673;-68
2023/12/12 05:52:32;;;;;;;3.37;2.77;;;7.30;99.90;;;;;;5071032;28;20280;-68
2023/12/12 05:54:59;;;;;;;3.97;3.07;;;7.30;99.90;;;;;;5065750;28;20232;-68
2023/12/12 05:57:25;;;;;;;3.03;2.50;;;7.30;99.90;;;;;;5051038;28;20324;-67
2023/12/12 05:59:52;;;;;;;3.20;2.60;;;7.30;99.90;;;;;;5072368;28;20268;-68
2023/12/12 06:02:21;;;;;;;4.07;2.87;;;7.30;99.90;;;;;;5071127;28;20220;-68
2023/12/12 06:04:48;;;;;;;3.83;3.07;;;7.30;99.90;;;;;;5070729;28;20212;-68
2023/12/12 06:07:17;;;;;;;4.53;3.10;;;7.30;99.90;;;;;;5066937;28;20193;-68
2023/12/12 06:09:45;;;;;;;5.83;3.87;;;7.30;99.90;;;;;;5072058;28;20205;-68
2023/12/12 06:12:12;;;;;;;6.20;3.43;;;7.30;99.90;;;;;;5071204;28;20594;-68
2023/12/12 06:14:39;;;;;;;4.07;3.30;;;7.30;99.90;;;;;;5071827;28;20231;-68
2023/12/12 06:17:06;;;;;;;5.43;3.67;;;7.20;99.90;;;;;;5071695;28;20197;-67
2023/12/12 06:19:34;;;;;;;5.00;3.23;;;7.30;99.90;;;;;;5071626;28;20189;-67
2023/12/12 06:22:01;;;;;;;3.80;2.93;;;7.30;99.90;;;;;;5071453;28;20750;-67
2023/12/12 06:24:29;;;;;;;4.00;3.27;;;7.30;99.90;;;;;;5052931;28;20205;-68
2023/12/12 06:26:56;;;;;;;3.53;3.20;;;7.30;99.90;;;;;;5071227;28;20231;-67
2023/12/12 06:29:23;;;;;;;4.63;3.37;;;7.20;99.90;;;;;;5071516;28;20216;-67
2023/12/12 06:31:50;;;;;;;3.87;2.90;;;7.30;99.90;;;;;;5071055;28;20200;-67
2023/12/12 06:34:17;;;;;;;5.13;2.47;;;7.20;99.90;;;;;;5071182;28;20197;-68
2023/12/12 06:36:44;;;;;;;6.20;3.40;;;7.30;99.90;;;;;;5070436;28;20198;-68
2023/12/12 06:39:13;;;;;;;4.27;3.30;;;7.20;99.90;;;;;;5070928;28;20396;-68
2023/12/12 06:41:41;;;;;;;3.63;3.20;;;7.20;99.90;;;;;;5071223;28;20193;-67
2023/12/12 06:44:08;;;;;;;3.47;2.80;;;7.20;99.90;;;;;;5070034;28;20197;-68
2023/12/12 06:46:36;;;;;;;5.70;3.47;;;7.20;99.90;;;;;;5053061;28;20258;-68
2023/12/12 06:49:06;;;;;;;4.63;3.70;;;7.20;99.90;;;;;;5071013;28;20211;-68
2023/12/12 06:51:33;;;;;;;4.57;3.30;;;7.20;99.90;;;;;;5051991;28;20225;-68
2023/12/12 06:54:00;;;;;;;5.53;4.20;;;7.30;99.90;;;;;;5070646;28;20224;-68
2023/12/12 06:56:27;;;;;;;6.43;3.10;;;7.30;99.90;;;;;;5070630;28;20201;-68
2023/12/12 06:58:56;;;;;;;3.77;3.20;;;7.40;99.90;;;;;;5071428;28;20189;-68
2023/12/12 07:01:22;;;;;;;3.97;2.90;;;7.30;99.90;;;;;;5063031;28;20196;-67
2023/12/12 07:03:49;;;;;;;4.97;3.70;;;7.40;99.90;;;;;;5070474;28;20233;-69
2023/12/12 07:06:18;;;;;;;5.53;3.30;;;7.30;99.90;;;;;;5069539;28;20403;-68
2023/12/12 07:08:45;;;;;;;4.17;3.30;;;7.30;99.90;;;;;;5070787;28;20284;-68
2023/12/12 07:11:12;;;;;;;5.43;3.30;;;7.30;99.90;;;;;;5052465;28;20297;-68
2023/12/12 07:13:39;;;;;;;6.80;3.90;;;7.30;99.90;;;;;;5070885;28;20193;-68
2023/12/12 07:16:10;;;;;;;9.60;5.03;;;7.20;99.90;;;;;;5070414;28;20236;-68
2023/12/12 07:18:38;;;;;;;7.70;4.23;;;7.20;99.90;;;;;;5053366;28;20745;-68
2023/12/12 07:21:05;;;;;;;6.10;4.13;;;7.20;99.90;;;;;;5068496;28;20189;-67
2023/12/12 07:23:32;;;;;;;4.93;3.90;;;7.20;99.90;;;;;;5070348;28;20224;-68
2023/12/12 07:25:59;;;;;;;6.27;3.87;;;7.30;99.90;;;;;;5069908;28;20216;-68
2023/12/12 07:28:27;;;;;;;5.43;3.87;;;7.20;99.90;;;;;;5070806;28;20198;-69
2023/12/12 07:30:54;;;;;;;6.03;3.70;;;7.20;99.90;;;;;;5070337;28;20209;-69
2023/12/12 07:33:22;;;;;;;6.27;4.27;;;7.20;99.90;;;;;;5044558;28;20700;-69
2023/12/12 07:35:49;;;;;;;6.40;4.57;;;7.20;99.90;;;;;;5068830;28;20196;-69
2023/12/12 07:38:17;;;;;;;5.17;3.73;;;7.20;99.90;;;;;;5062975;28;20203;-69
2023/12/12 07:40:44;;;;;;;6.03;3.90;;;7.20;99.90;;;;;;5052373;28;20544;-68
2023/12/12 07:43:12;;;;;;;4.23;3.73;;;7.20;99.90;;;;;;5070259;28;20197;-68
2023/12/12 07:45:39;;;;;;;7.07;4.07;;;7.10;99.90;;;;;;5070060;28;20232;-68
2023/12/12 07:48:07;;;;;;;5.03;3.60;;;7.20;99.90;;;;;;5064971;28;20692;-68
2023/12/12 07:50:36;;;;;;;3.80;3.30;;;7.20;99.90;;;;;;5069652;28;20206;-68
2023/12/12 07:53:04;;;;;;;3.83;3.03;;;7.20;99.90;;;;;;5051692;28;20276;-69
2023/12/12 07:55:32;;;;;;;3.33;3.03;;;7.20;99.90;;;;;;5069671;28;20197;-67
2023/12/12 07:57:59;;;;;;;3.67;3.37;;;7.20;99.90;;;;;;5070139;28;20204;-67
2023/12/12 08:00:26;;;;;;;5.73;3.40;;;7.20;99.90;;;;;;5052233;28;20351;-68
2023/12/12 08:02:53;;;;;;;4.70;3.27;;;7.20;99.90;;;;;;5069906;28;20629;-69
2023/12/12 08:05:20;;;;;;;4.83;3.87;;;7.30;99.90;;;;;;5069743;28;20601;-67
2023/12/12 08:07:49;;;;;;;5.03;3.80;;;7.30;99.90;;;;;;5067503;28;20227;-68
2023/12/12 08:10:16;;;;;;;5.50;4.13;;;7.30;99.90;;;;;;5070465;28;20209;-68
2023/12/12 08:12:44;;;;;;;5.43;3.90;;;7.30;99.90;;;;;;5067420;28;20290;-68
2023/12/12 08:15:11;;;;;;;3.57;3.23;;;7.30;99.90;;;;;;5050834;28;20280;-67
2023/12/12 08:17:38;;;;;;;5.17;4.07;;;7.40;99.90;;;;;;5069181;28;20197;-68
2023/12/12 08:20:07;;;;;;;5.63;3.40;;;7.40;99.90;;;;;;5052353;28;20701;-69
2023/12/12 08:22:34;;;;;;;4.70;3.40;;;7.40;99.90;;;;;;5068158;28;20228;-69
2023/12/12 08:25:03;;;;;;;3.90;3.33;;;7.40;99.90;;;;;;5070792;28;20295;-67
2023/12/12 08:27:29;;;;;;;3.80;2.77;;;7.30;99.90;;;;;;5069461;28;20747;-68
2023/12/12 08:29:56;;;;;;;3.40;2.70;;;7.30;99.90;;;;;;5060392;28;20334;-68
2023/12/12 08:32:23;;;;;;;2.60;2.40;;;7.30;99.90;;;;;;5069513;28;20255;-68
2023/12/12 08:34:50;;;;;;;5.23;3.30;;;7.30;99.90;;;;;;5069919;28;20216;-68
2023/12/12 08:37:17;;;;;;;5.47;2.90;;;7.40;99.90;;;;;;5068484;28;20624;-67
2023/12/12 08:39:44;;;;;;;3.30;2.60;;;7.40;99.90;;;;;;5070053;28;20289;-68
2023/12/12 08:42:13;;;;;;;2.83;2.53;;;7.40;99.90;;;;;;5050276;28;20220;-67
2023/12/12 08:44:41;;;;;;;3.07;2.57;;;7.40;99.90;;;;;;5068992;28;20193;-68
2023/12/12 08:47:08;;;;;;;3.13;2.80;;;7.40;99.90;;;;;;5069097;28;20194;-68
2023/12/12 08:49:37;;;;;;;3.90;3.17;;;7.50;99.90;;;;;;5069720;28;20239;-68
2023/12/12 08:52:05;;;;;;;3.63;2.90;;;7.40;99.90;;;;;;5068843;28;20217;-68
2023/12/12 08:54:33;;;;;;;2.63;2.43;;;7.50;99.90;;;;;;5069453;28;20220;-68
2023/12/12 08:57:02;;;;;;;2.30;2.10;;;7.40;99.90;;;;;;5066435;28;20208;-68
2023/12/12 08:59:30;;;;;;;2.07;1.97;;;7.40;99.90;;;;;;5069870;28;20200;-69
2023/12/12 09:01:58;;;;;;;4.47;3.33;;;7.40;99.90;;;;;;5068971;28;20187;-68
2023/12/12 09:04:25;;;;;;;3.70;2.80;;;7.40;99.90;;;;;;5069356;28;20712;-68
2023/12/12 09:06:52;;;;;;;2.87;2.53;;;7.40;99.90;;;;;;5069086;28;20288;-68
2023/12/12 09:09:19;;;;;;;2.47;2.27;;;7.40;99.90;;;;;;5065895;28;20202;-68
2023/12/12 09:11:47;;;;;;;3.17;2.37;;;7.40;99.90;;;;;;5047733;28;20212;-68
2023/12/12 09:14:14;;;;;;;2.80;2.43;;;7.40;99.90;;;;;;5073009;28;20664;-68
2023/12/12 09:16:43;;;;;;;5.43;3.10;;;7.40;99.90;;;;;;5072572;28;20202;-69
2023/12/12 09:19:14;;;;;;;3.33;2.73;;;7.40;99.90;;;;;;5072922;28;20189;-69
2023/12/12 09:21:41;;;;;;;3.77;2.73;;;7.40;99.90;;;;;;5063358;28;20202;-69
2023/12/12 09:24:09;;;;;;;2.67;2.40;;;7.40;99.90;;;;;;5053380;28;20197;-68
2023/12/12 09:26:36;;;;;;;2.87;2.67;;;7.40;99.90;;;;;;5072640;28;20190;-68
2023/12/12 09:29:04;;;;;;;5.83;2.87;;;7.40;99.90;;;;;;5072594;28;20276;-68
2023/12/12 09:31:32;;;;;;;2.97;2.67;;;7.40;99.90;;;;;;5061745;28;20291;-68
2023/12/12 09:34:00;;;;;;;4.27;2.87;;;7.50;99.90;;;;;;5053644;28;20271;-68
2023/12/12 09:36:29;;;;;;;2.97;2.53;;;7.50;99.90;;;;;;5050296;28;20837;-68
2023/12/12 09:38:57;;;;;;;3.57;3.00;;;7.50;99.90;;;;;;5049557;28;20702;-68
2023/12/12 09:41:25;;;;;;;4.37;2.70;;;7.40;99.90;;;;;;5071771;28;20185;-69
2023/12/12 09:43:52;;;;;;;3.03;2.73;;;7.40;99.90;;;;;;5054285;28;20198;-69
2023/12/12 09:46:20;;;;;;;2.77;2.40;;;7.40;99.90;;;;;;5071992;28;20193;-69
2023/12/12 09:48:49;;;;;;;3.37;2.50;;;7.40;99.90;;;;;;5072394;28;20197;-69
2023/12/12 09:51:18;;;;;;;1.93;1.73;;;7.40;99.90;;;;;;5071684;28;20296;-69
2023/12/12 09:53:46;;;;;;;1.87;1.77;;;7.40;99.90;;;;;;5071627;28;20204;-69
2023/12/12 09:56:16;;;;;;;2.30;2.10;;;7.40;99.90;;;;;;5072169;28;20713;-69
2023/12/12 09:58:46;;;;;;;2.60;2.40;;;7.30;99.90;;;;;;5054188;28;20549;-67
2023/12/12 10:01:14;;;;;;;2.53;2.30;;;7.40;99.90;;;;;;5071848;28;20196;-68
2023/12/12 10:03:42;;;;;;;2.33;2.13;;;7.40;99.90;;;;;;5070167;28;20232;-69
2023/12/12 10:06:12;;;;;;;2.43;2.17;;;7.40;99.90;;;;;;5068753;28;20290;-68
2023/12/12 10:08:40;;;;;;;2.67;2.37;;;7.40;99.90;;;;;;5071774;28;20200;-69
2023/12/12 10:11:09;;;;;;;2.97;2.53;;;7.40;99.90;;;;;;5071693;28;20204;-69
2023/12/12 10:13:48;;;;;;;2.33;2.13;;;7.50;99.90;;;;;;5072063;28;20247;-69
2023/12/12 10:16:15;;;;;;;2.30;2.17;;;7.50;99.90;;;;;;5071485;28;20329;-69
2023/12/12 10:18:46;;;;;;;2.30;2.00;;;7.50;99.90;;;;;;5071695;28;20276;-69
2023/12/12 10:21:17;;;;;;;2.40;2.20;;;7.50;99.90;;;;;;5071636;28;20193;-69
2023/12/12 10:23:46;;;;;;;2.47;2.27;;;7.50;99.90;;;;;;5071205;28;20201;-69
2023/12/12 10:26:14;;;;;;;3.27;2.10;;;7.50;99.90;;;;;;5067315;28;20221;-68
2023/12/12 10:28:41;;;;;;;2.00;1.90;;;7.50;99.90;;;;;;5071448;28;20617;-69
2023/12/12 10:31:09;;;;;;;2.33;2.10;;;7.50;99.90;;;;;;5071116;28;20630;-68
2023/12/12 10:33:38;;;;;;;3.37;2.20;;;7.50;99.90;;;;;;5071318;28;20207;-68
2023/12/12 10:36:10;;;;;;;2.37;2.17;;;7.50;99.90;;;;;;5070078;28;20205;-68
2023/12/12 10:38:38;;;;;;;3.70;2.30;;;7.50;99.90;;;;;;5049466;28;20209;-69
2023/12/12 10:41:17;;;;;;;6.20;2.13;;;7.60;99.90;;;;;;5070983;28;20553;-68
2023/12/12 10:43:45;;;;;;;2.20;2.00;;;7.60;99.90;;;;;;5070896;28;20213;-68
2023/12/12 10:46:15;;;;;;;3.43;2.13;;;7.60;99.90;;;;;;5053093;28;20716;-68
2023/12/12 10:48:47;;;;;;;2.40;2.20;;;7.60;99.90;;;;;;5071620;28;20649;-68
2023/12/12 10:51:15;;;;;;;1.90;1.80;;;7.60;99.90;;;;;;5070653;28;20262;-68
2023/12/12 10:53:43;;;;;;;2.23;2.03;;;7.50;99.90;;;;;;5070406;28;20284;-68
2023/12/12 10:56:12;;;;;;;2.43;2.07;;;7.50;99.90;;;;;;5070606;28;20272;-67
2023/12/12 10:58:42;;;;;;;2.60;2.40;;;7.60;99.90;;;;;;5070389;28;20549;-68
2023/12/12 11:01:10;;;;;;;4.50;2.90;;;7.50;99.90;;;;;;5070564;28;20595;-68
2023/12/12 11:03:38;;;;;;;2.80;2.20;;;7.60;99.90;;;;;;5052803;28;20264;-67
2023/12/12 11:06:06;;;;;;;2.40;2.20;;;7.50;99.90;;;;;;5069762;28;20244;-67
2023/12/12 11:08:34;;;;;;;2.80;2.43;;;7.50;99.90;;;;;;5070690;28;20262;-67
2023/12/12 11:11:05;;;;;;;2.43;2.10;;;7.50;99.90;;;;;;5070361;28;20228;-69
2023/12/12 11:13:35;;;;;;;2.47;2.07;;;7.50;99.90;;;;;;5070751;28;20197;-67
2023/12/12 11:16:06;;;;;;;2.00;1.80;;;7.60;99.90;;;;;;5051895;28;20209;-68
2023/12/12 11:18:37;;;;;;;2.90;2.60;;;7.50;99.90;;;;;;5071334;28;20193;-68
2023/12/12 11:21:04;;;;;;;2.67;2.37;;;7.50;99.90;;;;;;5070343;28;20190;-68
2023/12/12 11:23:55;;;;;;;4.17;2.40;;;7.60;99.90;;;;;;5070235;28;20190;-69
2023/12/12 11:26:25;;;;;;;2.30;2.10;;;7.60;99.90;;;;;;5069972;28;20570;-68
2023/12/12 11:28:55;;;;;;;2.23;2.03;;;7.50;99.90;;;;;;5052482;28;20664;-69
2023/12/12 11:31:25;;;;;;;2.47;2.13;;;7.50;99.90;;;;;;5051778;28;20615;-68
2023/12/12 11:34:04;;;;;;;2.30;2.20;;;7.50;99.90;;;;;;5071169;28;20201;-68
2023/12/12 11:36:49;;;;;;;2.53;2.33;;;7.50;99.90;;;;;;5050104;28;20210;-68
2023/12/12 11:39:23;;;;;;;3.53;2.23;;;7.50;99.90;;;;;;5068812;28;20276;-69
2023/12/12 11:41:51;;;;;;;2.80;2.17;;;7.60;99.90;;;;;;5070361;28;20197;-68
2023/12/12 11:44:19;;;;;;;2.23;2.03;;;7.60;99.90;;;;;;5070781;28;20199;-68
2023/12/12 11:46:48;;;;;;;2.07;1.93;;;7.60;99.90;;;;;;5070043;28;20280;-68
2023/12/12 11:49:19;;;;;;;2.07;1.87;;;7.60;99.90;;;;;;5069945;28;20232;-68
2023/12/12 11:51:49;;;;;;;2.50;2.30;;;7.60;99.90;;;;;;5069750;28;20207;-69
2023/12/12 11:54:21;;;;;;;2.30;2.10;;;7.60;99.90;;;;;;5070380;28;20954;-69
2023/12/12 11:56:54;;;;;;;2.50;2.30;;;7.60;99.90;;;;;;5068967;28;20399;-69
2023/12/12 11:59:22;;;;;;;2.73;2.30;;;7.70;99.90;;;;;;5068823;28;20678;-68
2023/12/12 12:01:52;;;;;;;2.20;2.10;;;7.70;99.90;;;;;;5069550;28;20275;-68
2023/12/12 12:04:19;;;;;;;2.90;2.60;;;7.60;99.90;;;;;;5070014;28;20239;-68
2023/12/12 12:06:46;;;;;;;4.33;3.00;;;7.60;99.90;;;;;;5068862;28;20200;-68
2023/12/12 12:09:15;;;;;;;3.90;3.20;;;7.60;99.90;;;;;;5069609;28;20201;-68
2023/12/12 12:11:46;;;;;;;2.73;2.50;;;7.60;99.90;;;;;;5069238;28;20526;-68
2023/12/12 12:14:15;;;;;;;2.70;2.50;;;7.60;99.90;;;;;;5070125;28;20336;-69
2023/12/12 12:16:43;;;;;;;2.93;2.73;;;7.60;99.90;;;;;;5057978;28;20197;-68
2023/12/12 12:19:34;;;;;;;3.73;2.80;;;7.60;99.90;;;;;;5069809;28;20266;-67
2023/12/12 12:22:06;;;;;;;3.73;3.27;;;7.60;99.90;;;;;;5051833;28;20198;-68
2023/12/12 12:24:33;;;;;;;3.93;2.67;;;7.60;99.90;;;;;;5069709;28;20643;-68
2023/12/12 12:27:00;;;;;;;3.90;2.70;;;7.60;99.90;;;;;;5051639;28;20648;-68
2023/12/12 12:29:27;;;;;;;2.47;2.17;;;7.60;99.90;;;;;;5069505;28;20213;-68
2023/12/12 12:31:54;;;;;;;3.57;2.83;;;7.60;99.90;;;;;;5069463;28;20379;-68
2023/12/12 12:34:23;;;;;;;5.07;3.40;;;7.60;99.90;;;;;;5051085;28;20204;-69
2023/12/12 12:36:52;;;;;;;2.83;2.60;;;7.60;99.90;;;;;;5069204;28;20629;-68
2023/12/12 12:39:19;;;;;;;3.23;2.47;;;7.60;99.90;;;;;;5068482;28;20181;-69
2023/12/12 12:41:53;;;;;;;3.10;2.27;;;7.60;99.90;;;;;;5072412;28;20197;-69
2023/12/12 12:44:20;;;;;;;3.57;2.80;;;7.60;99.90;;;;;;5073839;28;20240;-68
2023/12/12 12:46:51;;;;;;;3.00;2.70;;;7.60;99.90;;;;;;5073162;28;20197;-68
2023/12/12 12:49:18;;;;;;;2.67;2.47;;;7.60;99.90;;;;;;5073512;28;20200;-68
2023/12/12 12:51:47;;;;;;;3.00;2.70;;;7.60;99.90;;;;;;5072814;28;20209;-67
2023/12/12 12:54:16;;;;;;;3.73;2.70;;;7.60;99.90;;;;;;5073329;28;20201;-68
2023/12/12 12:56:44;;;;;;;2.50;2.30;;;7.60;99.90;;;;;;5072991;28;20192;-68
2023/12/12 12:59:14;;;;;;;1.97;1.87;;;7.60;99.90;;;;;;5073496;28;20206;-68